Archival Weather

NSFA McMurdo Sound

NSFA McMurdo Sound, Antarctica (NZCM)

Report from: Saturday, February 24, 2024 8:55 PM UTC
Current time: Friday, June 14, 2024 12:58 PM UTC

Current weather – Weather history – Daily summaries
Weather forecast

Temperature-11.9°C (10.6°F)
Wind chill-19.0°C (-2.2°F)
Dew point-28.0°C (-18.4°F)
Winds 8 kts (4.1 m/s, 9.2 mph) East (80°)
Visibility6.2 mi. (10 km)
Clouds Sky clear
Altimeter29.14 in.Hg (987 mB)
Relative humidity25 %
Density altitude-5,851 ft. (-1,783 m)
Sea-level pressure108.7 kPa (1087 mB, 32.11 in.Hg)
Remarks Fully automated report
Automated weather observing station with precipitation discriminator
Pressure falling more quickly
Flight conditions Visual Meteorological Conditions
Raw dataNZCM 242055Z AUTO 08008KT 9999 CLR M12/M28 A2914 RMK AO2 SLP874 T11191280 58003
An error has occurred. This application may no longer respond until reloaded. Reload 🗙